Аэропорт: Аулие-Ата. Тараз

ICAO: UADD

METAR:
2022-06-26 10:00:00
UADD 261000Z 32004MPS 280V010 9999 SCT040 38/08 Q1005 NOSIG RMK QFE697/0930
METAR:
2022-06-26 08:00:00
TAF UADD 260800Z 2609/2618 34003G08MPS 9999 SCT050